Bothwell, Utah
Current Conditions -  °F | °C
As of 1:35 AM on Sunday 26 Oct 2014 (Local Time) from KBMC Reporting Station
Overcast Overcast  
Wind Chill: 65°   Ceiling: 9000
Heat Index: 65°   Visibility: 10mi
Dew Point: 39°   Wind: 10mph
Humidity: 39%   Direction: 230°SW
Pressure: 29.89"   Gusts: NA
Location:  41.6836°N, 112.26°W
Report Text: KBMC 260735Z AUTO 23009KT 10SM OVC090 18/04 A2989 RMK AO1 T01820040
Loading
Personal Weather Stations






























Interactive Weather Map
Tropical Storm Tracking
New forecast layout! Learn more

10-Day Weather Forecast

Advertisements
Track Severe Weather on mobile